createdAt,value
2019-05-01T00:00:23.956Z,94.37
2019-05-01T00:01:24.143Z,94.27
2019-05-01T00:02:24.331Z,94.27
2019-05-01T00:03:24.515Z,94.27
2019-05-01T00:04:24.700Z,94.18
2019-05-01T00:05:24.886Z,94.65
2019-05-01T00:06:25.069Z,94.74
2019-05-01T00:07:25.254Z,94.93
2019-05-01T00:08:25.438Z,94.70
2019-05-01T00:09:25.621Z,95.51
2019-05-01T00:10:25.812Z,95.12
2019-05-01T00:11:26.001Z,94.98
2019-05-01T00:12:26.184Z,94.89
2019-05-01T00:13:26.366Z,95.08
2019-05-01T00:14:26.552Z,94.89
2019-05-01T00:15:26.737Z,95.17
2019-05-01T00:16:26.921Z,95.27
2019-05-01T00:17:27.818Z,95.17
2019-05-01T00:18:27.291Z,95.27
2019-05-01T00:19:27.474Z,95.36
2019-05-01T00:20:27.658Z,95.27
2019-05-01T00:21:27.841Z,96.12
2019-05-01T00:22:28.024Z,95.75
2019-05-01T00:23:28.215Z,95.84
2019-05-01T00:24:28.391Z,95.94
2019-05-01T00:25:28.579Z,96.50
2019-05-01T00:26:28.767Z,96.22
2019-05-01T00:27:28.951Z,96.50
2019-05-01T00:28:29.137Z,97.45
2019-05-01T00:29:29.315Z,96.98
2019-05-01T00:30:30.367Z,96.89
2019-05-01T00:31:29.689Z,96.69
2019-05-01T00:32:29.877Z,96.50
2019-05-01T00:33:30.058Z,96.89
2019-05-01T00:34:30.240Z,96.98
2019-05-01T00:35:30.425Z,96.69
2019-05-01T00:36:30.612Z,96.50
2019-05-01T00:37:30.797Z,96.41
2019-05-01T00:38:30.978Z,96.50
2019-05-01T00:39:31.163Z,95.75
2019-05-01T00:40:31.356Z,95.75
2019-05-01T00:41:31.536Z,96.79
2019-05-01T00:42:31.718Z,96.22
2019-05-01T00:43:31.905Z,96.12
2019-05-01T00:44:32.110Z,96.03
2019-05-01T00:45:32.289Z,96.03
2019-05-01T00:46:32.477Z,95.84
2019-05-01T00:47:32.670Z,96.31
2019-05-01T00:48:32.865Z,97.17
2019-05-01T00:49:33.048Z,96.98
2019-05-01T00:50:33.233Z,97.08
2019-05-01T00:51:33.420Z,96.89
2019-05-01T00:52:33.605Z,97.64
2019-05-01T00:53:33.791Z,97.17
2019-05-01T00:54:33.974Z,97.17
2019-05-01T00:55:34.168Z,97.08
2019-05-01T00:56:34.353Z,96.98
2019-05-01T00:57:34.542Z,96.98
2019-05-01T00:58:34.718Z,97.08
2019-05-01T00:59:34.900Z,96.89
2019-05-01T01:00:42.922Z,97.08
2019-05-01T01:01:35.276Z,96.89
2019-05-01T01:02:35.462Z,97.27
2019-05-01T01:03:35.640Z,96.98
2019-05-01T01:04:35.835Z,97.45
2019-05-01T01:05:36.018Z,97.36
2019-05-01T01:06:36.204Z,98.03
2019-05-01T01:07:36.387Z,97.83
2019-05-01T01:08:36.583Z,97.17
2019-05-01T01:09:36.762Z,97.17
2019-05-01T01:10:36.954Z,97.17
2019-05-01T01:11:37.138Z,97.17
2019-05-01T01:12:37.327Z,97.27
2019-05-01T01:13:37.511Z,97.83
2019-05-01T01:14:37.695Z,97.45
2019-05-01T01:15:37.873Z,97.27
2019-05-01T01:16:38.066Z,98.12
2019-05-01T01:17:38.243Z,97.83
2019-05-01T01:18:38.435Z,97.74
2019-05-01T01:19:38.621Z,97.45
2019-05-01T01:20:38.812Z,97.83
2019-05-01T01:21:38.991Z,98.03
2019-05-01T01:22:39.183Z,97.74
2019-05-01T01:23:39.369Z,97.64
2019-05-01T01:24:39.559Z,97.36
2019-05-01T01:25:39.737Z,98.03
2019-05-01T01:26:39.930Z,98.31
2019-05-01T01:27:40.113Z,98.79
2019-05-01T01:28:40.305Z,98.03
2019-05-01T01:29:40.478Z,98.79
2019-05-01T01:30:40.668Z,98.69
2019-05-01T01:31:40.857Z,98.60
2019-05-01T01:32:41.048Z,98.79
2019-05-01T01:33:41.220Z,98.79
2019-05-01T01:34:41.422Z,98.55
2019-05-01T01:35:41.605Z,98.55
2019-05-01T01:36:41.792Z,98.64
2019-05-01T01:37:41.972Z,98.45
2019-05-01T01:38:42.164Z,98.64
2019-05-01T01:39:42.348Z,98.36
2019-05-01T01:40:42.531Z,98.45
2019-05-01T01:41:42.726Z,98.17
2019-05-01T01:42:42.905Z,98.74
2019-05-01T01:43:43.088Z,98.64
2019-05-01T01:44:43.275Z,98.74
2019-05-01T01:45:43.459Z,98.93
2019-05-01T01:46:43.641Z,98.55
2019-05-01T01:47:43.829Z,98.93
2019-05-01T01:48:44.011Z,99.50
2019-05-01T01:49:44.194Z,99.50
2019-05-01T01:50:44.380Z,99.40
2019-05-01T01:51:44.569Z,98.93
2019-05-01T01:52:44.749Z,99.69
2019-05-01T01:53:44.936Z,99.50
2019-05-01T01:54:45.122Z,99.99
2019-05-01T01:55:45.339Z,99.78
2019-05-01T01:56:45.500Z,99.78
2019-05-01T01:57:45.684Z,99.99
2019-05-01T01:58:45.871Z,99.97
2019-05-01T01:59:46.050Z,99.99
2019-05-01T02:00:46.239Z,99.99
2019-05-01T02:01:46.424Z,99.97
2019-05-01T02:02:46.601Z,99.99
2019-05-01T02:03:46.787Z,99.99
2019-05-01T02:04:46.976Z,99.99
2019-05-01T02:05:47.163Z,99.99
2019-05-01T02:06:47.347Z,99.99
2019-05-01T02:07:47.535Z,99.99
2019-05-01T02:08:56.318Z,99.83
2019-05-01T02:09:48.764Z,99.99
2019-05-01T02:10:48.100Z,99.99
2019-05-01T02:11:48.284Z,99.99
2019-05-01T02:12:48.471Z,99.99
2019-05-01T02:13:48.655Z,99.99
2019-05-01T02:14:48.865Z,99.99
2019-05-01T02:15:49.045Z,99.99
2019-05-01T02:16:49.245Z,99.99
2019-05-01T02:17:50.148Z,99.99
2019-05-01T02:18:49.586Z,99.99
2019-05-01T02:19:49.770Z,99.99
2019-05-01T02:20:49.954Z,99.99
2019-05-01T02:21:50.140Z,99.99
2019-05-01T02:22:50.331Z,99.99
2019-05-01T02:23:50.514Z,99.99
2019-05-01T02:24:50.697Z,99.99
2019-05-01T02:25:50.893Z,99.99
2019-05-01T02:26:51.071Z,99.99
2019-05-01T02:27:51.257Z,99.99
2019-05-01T02:28:51.440Z,99.99
2019-05-01T02:29:51.632Z,99.99
2019-05-01T02:30:51.819Z,99.99
2019-05-01T02:31:52.005Z,99.99
2019-05-01T02:32:52.185Z,99.99
2019-05-01T02:33:52.378Z,99.99
2019-05-01T02:34:52.559Z,99.99
2019-05-01T02:35:52.745Z,99.99
2019-05-01T02:36:52.930Z,99.99
2019-05-01T02:37:53.112Z,99.99
2019-05-01T02:38:53.307Z,99.99
2019-05-01T02:39:53.497Z,99.99
2019-05-01T02:40:53.688Z,99.99
2019-05-01T02:41:53.867Z,99.99
2019-05-01T02:42:54.052Z,99.99
2019-05-01T02:43:54.240Z,99.99
2019-05-01T02:44:54.429Z,99.99
2019-05-01T02:45:54.620Z,99.99
2019-05-01T02:46:54.803Z,99.99
2019-05-01T02:47:54.990Z,99.99
2019-05-01T02:48:55.172Z,99.99
2019-05-01T02:49:55.368Z,99.99
2019-05-01T02:50:55.546Z,99.99
2019-05-01T02:51:55.733Z,99.99
2019-05-01T02:52:55.916Z,99.99
2019-05-01T02:53:56.107Z,99.99
2019-05-01T02:54:56.300Z,99.99
2019-05-01T02:55:56.482Z,99.99
2019-05-01T02:56:56.673Z,99.99
2019-05-01T02:57:56.862Z,99.99
2019-05-01T02:58:57.054Z,99.99
2019-05-01T02:59:57.234Z,99.99
2019-05-01T03:00:57.417Z,99.99
2019-05-01T03:01:57.606Z,99.99
2019-05-01T03:02:57.784Z,99.99
2019-05-01T03:03:57.967Z,99.99
2019-05-01T03:04:58.162Z,99.99
2019-05-01T03:05:58.343Z,99.99
2019-05-01T03:06:58.525Z,99.99
2019-05-01T03:07:58.710Z,99.99
2019-05-01T03:08:58.901Z,99.99
2019-05-01T03:09:59.082Z,99.99
2019-05-01T03:10:59.271Z,99.99
2019-05-01T03:14:42.322Z,99.99
2019-05-01T03:15:42.496Z,99.99
2019-05-01T03:16:42.686Z,99.99
2019-05-01T03:17:42.872Z,99.99
2019-05-01T03:18:43.055Z,99.99
2019-05-01T03:19:43.238Z,99.99
2019-05-01T03:20:43.424Z,99.99
2019-05-01T03:21:43.605Z,99.99
2019-05-01T03:22:43.791Z,99.99
2019-05-01T03:23:43.973Z,99.99
2019-05-01T03:24:44.161Z,99.99
2019-05-01T03:25:44.334Z,99.99
2019-05-01T03:26:44.524Z,99.99
2019-05-01T03:27:44.708Z,99.99
2019-05-01T03:28:44.898Z,99.99
2019-05-01T03:29:45.081Z,99.99
2019-05-01T03:30:45.265Z,99.99
2019-05-01T03:32:12.914Z,99.99
2019-05-01T03:32:45.630Z,99.99
2019-05-01T03:33:45.827Z,99.99
2019-05-01T03:34:51.965Z,99.99
2019-05-01T03:35:46.187Z,99.99
2019-05-01T03:36:46.374Z,99.99
2019-05-01T03:37:46.547Z,99.99
2019-05-01T03:38:46.730Z,99.99
2019-05-01T03:39:46.911Z,99.99
2019-05-01T03:40:47.096Z,99.99
2019-05-01T03:41:47.303Z,99.99
2019-05-01T03:42:47.492Z,99.99
2019-05-01T03:43:47.665Z,99.99
2019-05-01T03:44:47.837Z,99.99
2019-05-01T03:45:47.989Z,99.99
2019-05-01T03:46:48.181Z,99.99
2019-05-01T03:47:48.413Z,99.99
2019-05-01T03:48:48.568Z,99.99
2019-05-01T03:49:48.757Z,99.99
2019-05-01T03:50:48.943Z,99.99
2019-05-01T03:51:49.114Z,99.99
2019-05-01T03:52:49.309Z,99.99
2019-05-01T03:53:49.497Z,99.99
2019-05-01T03:54:49.697Z,99.99
2019-05-01T03:55:49.860Z,99.99
2019-05-01T03:56:50.050Z,99.99
2019-05-01T03:57:50.226Z,99.99
2019-05-01T03:58:50.427Z,99.99
2019-05-01T03:59:50.584Z,99.99
2019-05-01T04:00:50.773Z,99.99
2019-05-01T04:01:50.961Z,99.99
2019-05-01T04:02:51.138Z,99.99
2019-05-01T04:03:51.328Z,99.99
2019-05-01T04:04:51.520Z,99.99
2019-05-01T04:05:51.701Z,99.99
2019-05-01T04:06:51.877Z,99.99
2019-05-01T04:07:52.073Z,99.99
2019-05-01T04:08:52.262Z,99.99
2019-05-01T04:09:52.447Z,99.99
2019-05-01T04:10:52.624Z,99.99
2019-05-01T04:11:52.821Z,99.99
2019-05-01T04:12:53.019Z,99.99
2019-05-01T04:13:53.199Z,99.99
2019-05-01T04:14:53.374Z,99.99
2019-05-01T04:15:53.564Z,99.99
2019-05-01T04:16:53.745Z,99.99
2019-05-01T04:17:53.940Z,99.99
2019-05-01T04:18:54.119Z,99.99
2019-05-01T04:19:54.313Z,99.99
2019-05-01T04:20:54.495Z,99.99
2019-05-01T04:21:54.703Z,99.99
2019-05-01T04:22:54.857Z,99.99
2019-05-01T04:23:55.048Z,99.99
2019-05-01T04:24:55.225Z,99.99
2019-05-01T04:25:55.409Z,99.99
2019-05-01T04:26:55.588Z,99.99
2019-05-01T04:27:58.652Z,99.99
2019-05-01T04:28:55.953Z,99.99
2019-05-01T04:29:56.132Z,99.99
2019-05-01T04:30:56.315Z,99.99
2019-05-01T04:31:56.495Z,99.99
2019-05-01T04:32:56.684Z,99.99
2019-05-01T04:33:56.870Z,99.99
2019-05-01T04:34:57.070Z,99.99
2019-05-01T04:35:57.244Z,99.99
2019-05-01T04:36:57.427Z,99.99
2019-05-01T04:37:57.605Z,99.99
2019-05-01T04:38:57.791Z,99.99
2019-05-01T04:39:57.988Z,99.99
2019-05-01T04:40:58.166Z,99.99
2019-05-01T04:41:58.347Z,99.99
2019-05-01T04:42:58.529Z,99.99
2019-05-01T04:43:58.706Z,99.99
2019-05-01T04:44:58.894Z,99.99
2019-05-01T04:45:59.082Z,99.99
2019-05-01T04:46:59.270Z,99.99
2019-05-01T04:47:59.450Z,99.99
2019-05-01T04:48:59.634Z,99.99
2019-05-01T04:49:59.814Z,99.99
2019-05-01T04:50:59.994Z,99.99
2019-05-01T04:52:00.176Z,99.99
2019-05-01T04:53:00.361Z,99.99
2019-05-01T04:54:00.552Z,99.99
2019-05-01T04:55:00.733Z,99.99
2019-05-01T04:56:00.906Z,99.99
2019-05-01T04:57:01.089Z,99.99
2019-05-01T04:58:01.275Z,99.99
2019-05-01T04:59:01.451Z,99.99
2019-05-01T05:00:01.638Z,99.99
2019-05-01T05:01:01.823Z,99.99
2019-05-01T05:02:02.012Z,99.99
2019-05-01T05:03:04.847Z,99.99
2019-05-01T05:04:02.367Z,99.99
2019-05-01T05:05:02.549Z,99.99
2019-05-01T05:06:02.747Z,99.99
2019-05-01T05:07:02.923Z,99.99
2019-05-01T05:08:03.104Z,99.99
2019-05-01T05:09:03.288Z,99.99
2019-05-01T05:10:03.475Z,99.99
2019-05-01T05:11:03.655Z,99.99
2019-05-01T05:12:03.833Z,99.99
2019-05-01T05:13:04.028Z,99.99
2019-05-01T05:14:04.213Z,99.99
2019-05-01T05:15:04.406Z,99.99
2019-05-01T05:16:04.590Z,99.99
2019-05-01T05:17:04.771Z,99.99
2019-05-01T05:18:04.955Z,99.99
2019-05-01T05:19:05.140Z,99.99
2019-05-01T05:20:05.322Z,99.99
2019-05-01T05:21:05.498Z,99.99
2019-05-01T05:22:05.687Z,99.99
2019-05-01T05:23:05.867Z,99.99
2019-05-01T05:24:06.050Z,99.99
2019-05-01T05:25:06.252Z,99.99
2019-05-01T05:26:06.437Z,99.99
2019-05-01T05:27:06.621Z,99.99
2019-05-01T05:28:06.820Z,99.99
2019-05-01T05:29:07.013Z,99.99
2019-05-01T05:30:07.205Z,99.99
2019-05-01T05:31:07.391Z,99.99
2019-05-01T05:32:07.581Z,99.99
2019-05-01T05:33:18.010Z,99.99
2019-05-01T05:34:07.956Z,99.99
2019-05-01T05:35:08.141Z,99.99
2019-05-01T05:36:08.331Z,99.99
2019-05-01T05:37:08.517Z,99.99
2019-05-01T05:38:08.687Z,99.99
2019-05-01T05:39:08.869Z,99.99
2019-05-01T05:40:09.053Z,99.99
2019-05-01T05:41:09.238Z,99.69
2019-05-01T05:42:09.422Z,99.21
2019-05-01T05:43:09.601Z,98.93
2019-05-01T05:44:09.791Z,98.69
2019-05-01T05:45:09.978Z,98.97
2019-05-01T05:46:10.165Z,98.79
2019-05-01T05:47:10.349Z,99.07
2019-05-01T05:48:10.531Z,99.54
2019-05-01T05:49:10.737Z,99.83
2019-05-01T05:50:10.914Z,99.99
2019-05-01T05:51:11.091Z,99.99
2019-05-01T05:52:11.273Z,99.99
2019-05-01T05:53:11.462Z,99.99
2019-05-01T05:54:11.646Z,99.99
2019-05-01T05:55:11.827Z,99.99
2019-05-01T05:56:12.009Z,99.99
2019-05-01T05:57:12.201Z,99.99
2019-05-01T05:58:12.382Z,99.99
2019-05-01T05:59:12.568Z,99.99
2019-05-01T06:00:12.740Z,99.99
2019-05-01T06:01:12.929Z,99.99
2019-05-01T06:02:13.115Z,99.99
2019-05-01T06:03:13.307Z,99.99
2019-05-01T06:04:13.498Z,99.99
2019-05-01T06:05:13.675Z,99.99
2019-05-01T06:06:13.867Z,99.99
2019-05-01T06:07:14.048Z,99.99
2019-05-01T06:08:14.229Z,99.99
2019-05-01T06:09:15.644Z,99.69
2019-05-01T06:10:18.427Z,99.88
2019-05-01T06:11:14.783Z,99.16
2019-05-01T06:12:14.965Z,99.44
2019-05-01T06:13:18.000Z,99.64
2019-05-01T06:14:15.335Z,99.92
2019-05-01T06:15:15.515Z,99.99
2019-05-01T06:16:16.142Z,99.99
2019-05-01T06:17:15.895Z,99.99
2019-05-01T06:18:16.083Z,99.99
2019-05-01T06:19:16.395Z,99.99
2019-05-01T06:20:16.448Z,99.99
2019-05-01T06:21:16.637Z,99.99
2019-05-01T06:22:16.828Z,99.99
2019-05-01T06:23:20.571Z,99.99
2019-05-01T06:24:17.192Z,99.99
2019-05-01T06:25:23.120Z,99.99
2019-05-01T06:26:17.557Z,99.99
2019-05-01T06:27:17.747Z,99.97
2019-05-01T06:28:19.961Z,99.97
2019-05-01T06:29:18.134Z,99.88
2019-05-01T06:30:18.319Z,99.55
2019-05-01T06:31:23.285Z,99.07
2019-05-01T06:32:18.683Z,98.97
2019-05-01T06:33:18.869Z,98.60
2019-05-01T06:34:19.060Z,98.60
2019-05-01T06:35:19.242Z,98.41
2019-05-01T06:36:19.430Z,98.03
2019-05-01T06:37:20.855Z,97.45
2019-05-01T06:38:19.815Z,96.89
2019-05-01T06:39:19.998Z,96.31
2019-05-01T06:40:22.542Z,95.84
2019-05-01T06:41:20.363Z,95.94
2019-05-01T06:42:20.535Z,96.03
2019-05-01T06:43:25.205Z,96.03
2019-05-01T06:44:20.920Z,95.60
2019-05-01T06:45:21.105Z,95.41
2019-05-01T06:46:22.095Z,95.32
2019-05-01T06:47:21.468Z,95.41
2019-05-01T06:48:21.654Z,94.74
2019-05-01T06:49:24.223Z,95.41
2019-05-01T06:50:22.029Z,94.89
2019-05-01T06:51:22.214Z,95.22
2019-05-01T06:52:25.012Z,95.32
2019-05-01T06:53:22.590Z,95.27
2019-05-01T06:54:22.778Z,95.08
2019-05-01T06:55:27.171Z,95.75
2019-05-01T06:56:23.148Z,95.36
2019-05-01T06:57:23.341Z,95.46
2019-05-01T06:58:23.530Z,95.94
2019-05-01T06:59:26.339Z,95.94
2019-05-01T07:00:23.897Z,95.75
2019-05-01T07:01:24.150Z,96.03
2019-05-01T07:02:24.262Z,95.79
2019-05-01T07:03:24.452Z,95.89
2019-05-01T07:04:24.650Z,95.98
2019-05-01T07:05:24.812Z,95.51
2019-05-01T07:06:26.041Z,94.93
2019-05-01T07:07:25.889Z,94.08
2019-05-01T07:08:29.341Z,93.79
2019-05-01T07:09:27.986Z,94.08
2019-05-01T07:10:31.754Z,94.13
2019-05-01T07:11:25.978Z,93.74
2019-05-01T07:12:28.317Z,92.60
2019-05-01T07:13:26.280Z,92.41
2019-05-01T07:14:26.465Z,92.32
2019-05-01T07:15:27.165Z,92.41
2019-05-01T07:16:26.861Z,92.46
2019-05-01T07:17:27.043Z,92.74
2019-05-01T07:18:29.215Z,92.74
2019-05-01T07:19:27.407Z,92.74
2019-05-01T07:20:27.599Z,92.08
2019-05-01T07:21:32.381Z,92.18
2019-05-01T07:22:27.963Z,92.27
2019-05-01T07:23:28.151Z,91.99
2019-05-01T07:24:29.142Z,92.36
2019-05-01T07:25:28.529Z,91.89
2019-05-01T07:26:28.712Z,92.08
2019-05-01T07:27:28.906Z,91.99
2019-05-01T07:28:34.089Z,92.03
2019-05-01T07:29:29.277Z,91.94
2019-05-01T07:30:29.472Z,92.98
2019-05-01T07:31:30.914Z,91.84
2019-05-01T07:32:29.855Z,92.60
2019-05-01T07:33:30.047Z,92.22
2019-05-01T07:34:30.229Z,92.46
2019-05-01T07:35:33.094Z,91.94
2019-05-01T07:36:30.600Z,91.94
2019-05-01T07:37:30.790Z,91.84
2019-05-01T07:38:32.874Z,92.08
2019-05-01T07:39:32.714Z,91.84
2019-05-01T07:40:31.383Z,92.74
2019-05-01T07:41:33.969Z,91.69
2019-05-01T07:42:31.766Z,91.60
2019-05-01T07:43:31.950Z,92.27
2019-05-01T07:44:33.782Z,92.46
2019-05-01T07:45:32.321Z,92.13
2019-05-01T07:46:32.502Z,91.55
2019-05-01T07:47:32.690Z,92.27
2019-05-01T07:48:35.977Z,92.55
2019-05-01T07:49:33.064Z,92.55
2019-05-01T07:50:33.246Z,92.88
2019-05-01T07:51:33.446Z,92.79
2019-05-01T07:52:33.637Z,91.83
2019-05-01T07:53:33.827Z,92.32
2019-05-01T07:54:37.730Z,92.22
2019-05-01T07:55:34.217Z,91.64
2019-05-01T07:56:34.397Z,92.98
2019-05-01T07:57:39.553Z,92.41
2019-05-01T07:58:34.777Z,92.93
2019-05-01T07:59:34.975Z,92.55
2019-05-01T08:00:36.907Z,93.36
2019-05-01T08:01:35.346Z,92.88
2019-05-01T08:02:35.547Z,92.50
2019-05-01T08:03:37.990Z,93.02
2019-05-01T08:04:36.671Z,92.02
2019-05-01T08:05:36.116Z,91.97
2019-05-01T08:06:36.303Z,90.34
2019-05-01T08:07:36.512Z,91.30
2019-05-01T08:08:39.542Z,90.25
2019-05-01T08:09:36.895Z,89.67
2019-05-01T08:10:37.092Z,89.53
2019-05-01T08:11:39.113Z,89.48
2019-05-01T08:12:37.487Z,89.87
2019-05-01T08:13:37.685Z,90.10
2019-05-01T08:14:37.877Z,89.24
2019-05-01T08:15:38.076Z,88.62
2019-05-01T08:16:42.422Z,88.62
2019-05-01T08:17:38.452Z,88.66
2019-05-01T08:18:38.641Z,86.79
2019-05-01T08:19:39.378Z,86.07
2019-05-01T08:20:39.014Z,85.45
2019-05-01T08:21:39.213Z,86.17
2019-05-01T08:22:39.404Z,88.13
2019-05-01T08:23:42.571Z,87.85
2019-05-01T08:24:39.810Z,87.70
2019-05-01T08:25:39.967Z,86.88
2019-05-01T08:26:44.252Z,85.49
2019-05-01T08:27:40.350Z,84.78
2019-05-01T08:28:40.586Z,85.69
2019-05-01T08:29:42.172Z,86.55
2019-05-01T08:30:41.005Z,87.23
2019-05-01T08:31:41.192Z,87.17
2019-05-01T08:32:41.386Z,86.74
2019-05-01T08:33:44.780Z,86.17
2019-05-01T08:34:48.754Z,86.08
2019-05-01T08:35:41.958Z,86.41
2019-05-01T08:36:42.717Z,87.27
2019-05-01T08:37:42.345Z,87.66
2019-05-01T08:38:42.534Z,88.71
2019-05-01T08:39:44.166Z,88.67
2019-05-01T08:40:42.939Z,88.62
2019-05-01T08:41:43.119Z,89.15
2019-05-01T08:42:44.209Z,89.05
2019-05-01T08:43:43.502Z,89.53
2019-05-01T08:44:43.684Z,89.19
2019-05-01T08:45:43.899Z,88.62
2019-05-01T08:46:46.918Z,88.43
2019-05-01T08:47:44.278Z,88.43
2019-05-01T08:48:44.478Z,88.13
2019-05-01T08:49:49.503Z,88.90
2019-05-01T08:50:44.857Z,88.62
2019-05-01T08:51:45.057Z,88.43
2019-05-01T08:52:47.373Z,87.61
2019-05-01T08:53:45.443Z,87.61
2019-05-01T08:54:45.655Z,86.78
2019-05-01T08:55:47.118Z,83.89
2019-05-01T08:56:46.028Z,82.84
2019-05-01T08:57:46.238Z,82.93
2019-05-01T08:58:49.398Z,82.26
2019-05-01T08:59:46.631Z,81.40
2019-05-01T09:00:46.826Z,80.82
2019-05-01T09:01:50.604Z,78.75
2019-05-01T09:02:47.213Z,78.40
2019-05-01T09:03:49.631Z,77.17
2019-05-01T09:04:47.609Z,74.54
2019-05-01T09:05:52.037Z,72.61
2019-05-01T09:06:48.000Z,73.35
2019-05-01T09:07:51.335Z,72.84
2019-05-01T09:08:48.389Z,72.13
2019-05-01T09:09:48.588Z,73.77
2019-05-01T09:10:49.839Z,74.54
2019-05-01T09:11:48.991Z,73.86
2019-05-01T09:12:51.974Z,72.55
2019-05-01T09:13:49.372Z,71.04
2019-05-01T09:14:51.188Z,71.48
2019-05-01T09:15:49.783Z,71.55
2019-05-01T09:16:52.318Z,70.75
2019-05-01T09:17:50.182Z,69.98
2019-05-01T09:18:50.387Z,70.75
2019-05-01T09:19:50.593Z,69.69
2019-05-01T09:20:50.789Z,69.63
2019-05-01T09:21:50.995Z,69.53
2019-05-01T09:22:51.204Z,68.96
2019-05-01T09:23:53.221Z,70.50
2019-05-01T09:24:51.581Z,70.95
2019-05-01T09:25:51.797Z,68.00
2019-05-01T09:26:51.985Z,65.50
2019-05-01T09:27:52.182Z,64.95
2019-05-01T09:28:52.381Z,63.76
2019-05-01T09:29:52.865Z,65.14
2019-05-01T09:30:52.779Z,64.50
2019-05-01T09:31:52.985Z,65.11
2019-05-01T09:32:54.489Z,64.98
2019-05-01T09:33:53.396Z,64.53
2019-05-01T09:34:53.591Z,64.95
2019-05-01T09:35:53.789Z,64.18
2019-05-01T09:36:54.001Z,62.32
2019-05-01T09:37:54.201Z,62.57
2019-05-01T09:38:54.397Z,62.99
2019-05-01T09:39:54.604Z,62.41
2019-05-01T09:40:54.799Z,61.87
2019-05-01T09:41:55.006Z,61.10
2019-05-01T09:42:59.466Z,60.23
2019-05-01T09:43:55.401Z,59.68
2019-05-01T09:44:55.608Z,59.80
2019-05-01T09:45:55.801Z,59.25
2019-05-01T09:46:56.018Z,58.00
2019-05-01T09:47:56.229Z,58.39
2019-05-01T09:48:56.409Z,56.11
2019-05-01T09:49:56.606Z,55.89
2019-05-01T09:51:00.820Z,57.34
2019-05-01T09:51:57.017Z,58.23
2019-05-01T09:52:59.742Z,57.56
2019-05-01T09:53:57.476Z,57.49
2019-05-01T09:54:57.609Z,57.97
2019-05-01T09:55:57.823Z,58.29
2019-05-01T09:56:58.023Z,58.12
2019-05-01T09:57:58.227Z,55.01
2019-05-01T09:58:58.442Z,55.36
2019-05-01T09:59:58.644Z,56.72
2019-05-01T10:00:58.874Z,57.23
2019-05-01T10:02:03.064Z,56.00
2019-05-01T10:02:59.249Z,55.77
2019-05-01T10:03:59.439Z,53.35
2019-05-01T10:05:02.096Z,52.31
2019-05-01T10:05:59.837Z,53.02
2019-05-01T10:07:02.208Z,51.37
2019-05-01T10:08:04.165Z,51.37
2019-05-01T10:09:00.452Z,49.90
2019-05-01T10:10:00.656Z,51.47
2019-05-01T10:11:05.137Z,50.89
2019-05-01T10:12:01.062Z,50.70
2019-05-01T10:13:01.257Z,51.03
2019-05-01T10:14:04.094Z,52.99
2019-05-01T10:15:01.671Z,51.71
2019-05-01T10:16:01.872Z,52.00
2019-05-01T10:17:02.080Z,51.90
2019-05-01T10:18:02.328Z,51.37
2019-05-01T10:19:02.477Z,51.76
2019-05-01T10:20:02.686Z,51.54
2019-05-01T10:21:02.884Z,51.54
2019-05-01T10:22:03.762Z,52.61
2019-05-01T10:23:03.286Z,51.62
2019-05-01T10:24:03.483Z,49.95
2019-05-01T10:25:03.680Z,50.60
2019-05-01T10:26:03.882Z,51.20
2019-05-01T10:27:04.081Z,49.80
2019-05-01T10:28:07.295Z,49.80
2019-05-01T10:29:04.500Z,48.81
2019-05-01T10:30:04.688Z,49.68
2019-05-01T10:31:07.028Z,49.77
2019-05-01T10:32:05.087Z,49.95
2019-05-01T10:33:05.283Z,49.95
2019-05-01T10:34:07.582Z,51.68
2019-05-01T10:35:05.710Z,51.10
2019-05-01T10:36:05.901Z,52.03
2019-05-01T10:37:06.114Z,49.90
2019-05-01T10:38:09.346Z,48.74
2019-05-01T10:39:06.513Z,47.91
2019-05-01T10:40:06.714Z,47.13
2019-05-01T10:41:09.271Z,48.32
2019-05-01T10:42:07.119Z,49.90
2019-05-01T10:43:07.325Z,49.15
2019-05-01T10:44:07.529Z,48.08
2019-05-01T10:45:07.738Z,48.85
2019-05-01T10:46:07.940Z,49.29
2019-05-01T10:47:08.176Z,49.87
2019-05-01T10:48:08.344Z,49.99
2019-05-01T10:49:08.551Z,49.70
2019-05-01T10:50:08.743Z,49.70
2019-05-01T10:51:08.945Z,48.88
2019-05-01T10:52:14.300Z,47.52
2019-05-01T10:53:09.343Z,48.13
2019-05-01T10:54:09.546Z,47.45
2019-05-01T10:55:09.752Z,47.25
2019-05-01T10:56:09.955Z,48.88
2019-05-01T10:57:12.831Z,49.37
2019-05-01T10:58:12.762Z,48.42
2019-05-01T10:59:10.559Z,49.75
2019-05-01T11:00:10.758Z,50.07
2019-05-01T11:01:10.961Z,49.63
2019-05-01T11:02:11.156Z,50.16
2019-05-01T11:03:11.363Z,49.90
2019-05-01T11:04:11.552Z,48.61
2019-05-01T11:05:11.754Z,48.13
2019-05-01T11:06:11.947Z,48.32
2019-05-01T11:07:12.149Z,48.81
2019-05-01T11:08:12.351Z,50.16
2019-05-01T11:09:12.580Z,50.16
2019-05-01T11:10:12.805Z,48.83
2019-05-01T11:11:13.010Z,49.22
2019-05-01T11:12:13.209Z,49.99
2019-05-01T11:13:13.409Z,51.25
2019-05-01T11:14:13.619Z,50.38
2019-05-01T11:15:13.810Z,49.92
2019-05-01T11:16:14.011Z,49.58
2019-05-01T11:17:14.433Z,51.59
2019-05-01T11:18:14.516Z,51.97
2019-05-01T11:19:14.643Z,50.91
2019-05-01T11:20:14.855Z,51.44
2019-05-01T11:21:15.079Z,53.30
2019-05-01T11:22:15.280Z,52.95
2019-05-01T11:23:15.472Z,53.83
2019-05-01T11:24:15.666Z,54.98
2019-05-01T11:25:15.861Z,55.10
2019-05-01T11:26:16.058Z,54.05
2019-05-01T11:27:16.253Z,53.85
2019-05-01T11:28:16.448Z,55.04
2019-05-01T11:29:16.639Z,54.84
2019-05-01T11:30:16.867Z,53.39
2019-05-01T11:31:17.064Z,53.56
2019-05-01T11:32:17.257Z,55.49
2019-05-01T11:33:17.495Z,55.52
2019-05-01T11:34:17.690Z,53.69
2019-05-01T11:35:17.893Z,53.61
2019-05-01T11:36:18.079Z,53.88
2019-05-01T11:37:18.280Z,55.07
2019-05-01T11:38:18.477Z,53.71
2019-05-01T11:39:18.682Z,53.88
2019-05-01T11:40:18.887Z,54.43
2019-05-01T11:41:19.090Z,55.33
2019-05-01T11:42:19.271Z,53.30
2019-05-01T11:43:19.474Z,53.91
2019-05-01T11:44:19.672Z,54.00
2019-05-01T11:45:19.871Z,51.39
2019-05-01T11:46:20.074Z,52.19
2019-05-01T11:47:20.269Z,51.73
2019-05-01T11:48:20.466Z,49.65
2019-05-01T11:49:20.667Z,50.45
2019-05-01T11:50:20.857Z,52.21
2019-05-01T11:51:21.055Z,51.65
2019-05-01T11:52:21.265Z,51.44
2019-05-01T11:53:21.453Z,52.50
2019-05-01T11:54:21.656Z,52.69
2019-05-01T11:55:21.865Z,52.98
2019-05-01T11:56:22.074Z,53.37
2019-05-01T11:57:22.267Z,53.17
2019-05-01T11:58:22.458Z,53.37
2019-05-01T11:59:22.673Z,54.24
2019-05-01T12:00:22.840Z,53.47
2019-05-01T12:01:23.035Z,53.78
2019-05-01T12:02:23.238Z,52.69
2019-05-01T12:03:23.432Z,54.07
2019-05-01T12:04:23.625Z,53.97
2019-05-01T12:05:23.825Z,53.59
2019-05-01T12:06:24.027Z,52.84
2019-05-01T12:07:24.208Z,50.98
2019-05-01T12:08:24.411Z,51.61
2019-05-01T12:09:24.624Z,53.44
2019-05-01T12:10:24.819Z,54.47
2019-05-01T12:11:25.027Z,53.89
2019-05-01T12:12:25.213Z,53.80
2019-05-01T12:13:25.407Z,55.05
2019-05-01T12:14:25.611Z,55.02
2019-05-01T12:15:25.829Z,55.38
2019-05-01T12:16:26.031Z,55.70
2019-05-01T12:17:26.228Z,55.51
2019-05-01T12:18:26.433Z,55.60
2019-05-01T12:19:26.631Z,57.07
2019-05-01T12:20:26.820Z,55.66
2019-05-01T12:21:27.003Z,57.56
2019-05-01T12:22:27.224Z,56.98
2019-05-01T12:23:27.432Z,58.40
2019-05-01T12:24:27.672Z,57.02
2019-05-01T12:25:27.916Z,58.53
2019-05-01T12:26:28.070Z,58.75
2019-05-01T12:27:28.305Z,58.65
2019-05-01T12:28:28.492Z,58.17
2019-05-01T12:29:28.707Z,57.79
2019-05-01T12:30:28.903Z,57.92
2019-05-01T12:31:31.241Z,57.72
2019-05-01T12:32:29.316Z,58.78
2019-05-01T12:33:29.516Z,58.56
2019-05-01T12:34:29.700Z,58.17
2019-05-01T12:35:29.903Z,58.17
2019-05-01T12:36:36.518Z,58.20
2019-05-01T12:37:30.285Z,58.49
2019-05-01T12:38:30.524Z,58.59
2019-05-01T12:39:30.711Z,57.82
2019-05-01T12:40:30.912Z,57.69
2019-05-01T12:41:31.113Z,58.85
2019-05-01T12:42:31.414Z,58.69
2019-05-01T12:43:31.567Z,58.69
2019-05-01T12:44:31.813Z,58.49
2019-05-01T12:45:31.988Z,58.91
2019-05-01T12:46:32.183Z,60.10
2019-05-01T12:47:32.390Z,58.40
2019-05-01T12:48:32.587Z,58.78
2019-05-01T12:49:32.772Z,59.65
2019-05-01T12:50:32.971Z,58.20
2019-05-01T12:51:33.199Z,58.30
2019-05-01T12:52:33.384Z,59.55
2019-05-01T12:53:33.535Z,58.47
2019-05-01T12:54:33.729Z,60.27
2019-05-01T12:55:33.930Z,60.39
2019-05-01T12:56:34.241Z,59.59
2019-05-01T12:57:34.298Z,58.17